CheckWX is a tool to help pilots better visualize weather data.  It is not intended as a substitute for an official pre-flight weather briefing.

02:08:26 UTC

KLAF METAR
Purdue University Airport
Lafayette, Indiana, USA
Current

14 mins ago

KLAF 180154Z 00000KT 6SM BR OVC009 M02/M02 A2986 RMK AO2 CIG 006V011 SLP116 T10171022
Observed
Feb-18 @ 01:54 UTC
Visibility
6 SM
Flight Rules
IFR
Conditions
Mist
Cloud Levels
  • Overcast at 900' AGL
Temperature
-2°C / 28°F
Dewpoint
-2°C / 28°F
Humidity
100%
Altimeter
29.86" Hg
Pressure
1011.6 hPa
Previous

1 hour ago

KLAF 180054Z 31003KT 4SM BR OVC007 M02/M02 A2985 RMK AO2 UPB37E47 SLP113 P0000 I1000 T10221022
Observed
Feb-18 @ 00:54 UTC
Wind
  • 310° at 3 KTS
Visibility
4 SM
Flight Rules
IFR
Conditions
Mist
Cloud Levels
  • Overcast at 700' AGL
Temperature
-2°C / 28°F
Dewpoint
-2°C / 28°F
Humidity
100%
Altimeter
29.85" Hg
Pressure
1011.3 hPa
Current Rain
0.01"
Previous

2 hours ago

KLAF 180003Z 00000KT 4SM BR OVC009 M02/M02 A2982 RMK AO2 CIG 005V011 T10171022
Observed
Feb-18 @ 00:03 UTC
Visibility
4 SM
Flight Rules
IFR
Conditions
Mist
Cloud Levels
  • Overcast at 900' AGL
Temperature
-2°C / 28°F
Dewpoint
-2°C / 28°F
Humidity
100%
Altimeter
29.82" Hg
Pressure
1009.82 hPa